createdAt,value
2022-09-20T00:01:22.167Z,100806.25
2022-09-20T00:03:54.433Z,100798.22
2022-09-20T00:06:25.998Z,100808.09
2022-09-20T00:08:54.480Z,100802.00
2022-09-20T00:11:24.751Z,100803.81
2022-09-20T00:13:56.254Z,100803.72
2022-09-20T00:16:27.714Z,100799.31
2022-09-20T00:18:58.569Z,100809.91
2022-09-20T00:21:28.858Z,100806.41
2022-09-20T00:23:58.096Z,100814.56
2022-09-20T00:26:26.787Z,100802.22
2022-09-20T00:28:54.943Z,100810.28
2022-09-20T00:31:22.990Z,100817.47
2022-09-20T00:34:08.380Z,100814.91
2022-09-20T00:36:37.660Z,100815.78
2022-09-20T00:39:05.532Z,100820.41
2022-09-20T00:41:34.505Z,100819.56
2022-09-20T00:44:03.971Z,100817.84
2022-09-20T00:46:38.010Z,100813.19
2022-09-20T00:49:12.292Z,100821.38
2022-09-20T00:51:46.240Z,100811.75
2022-09-20T00:54:20.079Z,100819.78
2022-09-20T00:56:49.684Z,100823.44
2022-09-20T00:59:22.559Z,100825.28
2022-09-20T01:01:55.194Z,100826.13
2022-09-20T01:04:28.100Z,100824.44
2022-09-20T01:07:03.333Z,100830.75
2022-09-20T01:09:31.255Z,100835.22
2022-09-20T01:12:02.698Z,100836.22
2022-09-20T01:14:30.819Z,100843.28
2022-09-20T01:17:03.881Z,100838.91
2022-09-20T01:19:41.122Z,100844.19
2022-09-20T01:22:20.248Z,100843.28
2022-09-20T01:24:56.495Z,100839.75
2022-09-20T01:27:36.897Z,100845.97
2022-09-20T01:30:08.180Z,100820.56
2022-09-20T01:32:50.896Z,100852.22
2022-09-20T01:35:22.078Z,100843.28
2022-09-20T01:38:06.678Z,100845.91
2022-09-20T01:40:44.986Z,100851.34
2022-09-20T01:43:22.933Z,100848.59
2022-09-20T01:45:51.409Z,100846.97
2022-09-20T01:48:31.646Z,100847.72
2022-09-20T01:51:28.508Z,100859.31
2022-09-20T01:54:16.353Z,100856.69
2022-09-20T01:57:12.480Z,100860.28
2022-09-20T02:00:02.920Z,100863.88
2022-09-20T02:02:49.741Z,100865.66
2022-09-20T02:05:46.816Z,100869.25
2022-09-20T02:08:47.237Z,100880.97
2022-09-20T02:11:18.263Z,100871.22
2022-09-20T02:14:02.563Z,100882.66
2022-09-20T02:16:44.363Z,100881.94
2022-09-20T02:19:37.511Z,100878.09
2022-09-20T02:22:16.276Z,100842.75
2022-09-20T02:24:51.906Z,100877.88
2022-09-20T02:27:27.177Z,100882.25
2022-09-20T02:30:10.359Z,100887.59
2022-09-20T02:32:56.893Z,100894.69
2022-09-20T02:35:36.801Z,100890.53
2022-09-20T02:38:18.156Z,100888.16
2022-09-20T02:40:57.684Z,100901.25
2022-09-20T02:43:32.355Z,100904.94
2022-09-20T02:46:07.793Z,100904.94
2022-09-20T02:48:45.491Z,100902.31
2022-09-20T02:51:23.531Z,100909.50
2022-09-20T02:54:02.796Z,100922.91
2022-09-20T02:56:38.981Z,100920.22
2022-09-20T02:59:21.281Z,100924.78
2022-09-20T03:01:57.429Z,100912.44
2022-09-20T03:04:39.004Z,100917.81
2022-09-20T03:07:13.796Z,100928.53
2022-09-20T03:09:49.165Z,100931.22
2022-09-20T03:12:28.357Z,100934.88
2022-09-20T03:15:01.570Z,100932.19
2022-09-20T03:17:42.458Z,100935.81
2022-09-20T03:20:25.936Z,100934.38
2022-09-20T03:23:02.146Z,100942.19
2022-09-20T03:25:51.257Z,100951.09
2022-09-20T03:28:34.508Z,100950.22
2022-09-20T03:31:12.605Z,100950.31
2022-09-20T03:33:51.089Z,100953.78
2022-09-20T03:36:38.121Z,100956.56
2022-09-20T03:39:26.543Z,100964.59
2022-09-20T03:42:16.443Z,100970.84
2022-09-20T03:45:16.382Z,100971.69
2022-09-20T03:48:04.997Z,100983.16
2022-09-20T03:50:46.193Z,100976.84
2022-09-20T03:53:34.961Z,100973.16
2022-09-20T03:56:48.145Z,100989.38
2022-09-20T03:59:30.884Z,100985.84
2022-09-20T04:02:15.640Z,100984.97
2022-09-20T04:04:52.820Z,100991.44
2022-09-20T04:07:27.080Z,100993.03
2022-09-20T04:10:18.979Z,101004.75
2022-09-20T04:13:01.520Z,101005.56
2022-09-20T04:15:40.298Z,101010.22
2022-09-20T04:18:19.412Z,101007.53
2022-09-20T04:20:52.089Z,101015.56
2022-09-20T04:23:32.184Z,101012.91
2022-09-20T04:26:03.445Z,101004.78
2022-09-20T04:28:38.597Z,101020.22
2022-09-20T04:31:29.144Z,101030.94
2022-09-20T04:33:59.513Z,101029.22
2022-09-20T04:36:38.412Z,101047.91
2022-09-20T04:39:19.815Z,101032.66
2022-09-20T04:42:23.253Z,101039.13
2022-09-20T04:45:16.692Z,101041.53
2022-09-20T04:48:28.937Z,101052.41
2022-09-20T04:51:32.976Z,101052.41
2022-09-20T04:54:27.064Z,101059.72
2022-09-20T04:57:15.303Z,101057.03
2022-09-20T05:00:02.632Z,101057.03
2022-09-20T05:03:00.177Z,101059.72
2022-09-20T05:05:51.366Z,101070.31
2022-09-20T05:08:59.568Z,101077.41
2022-09-20T05:11:58.414Z,101083.84
2022-09-20T05:14:49.665Z,101082.03
2022-09-20T05:17:30.464Z,101089.97
2022-09-20T05:20:24.241Z,101089.84
2022-09-20T05:23:14.568Z,101093.38
2022-09-20T05:26:06.324Z,101093.84
2022-09-20T05:28:42.216Z,101101.66
2022-09-20T05:31:17.510Z,101113.16
2022-09-20T05:33:59.533Z,101112.38
2022-09-20T05:36:37.635Z,101115.31
2022-09-20T05:39:22.515Z,101117.88
2022-09-20T05:41:57.946Z,101123.22
2022-09-20T05:44:32.630Z,101132.25
2022-09-20T05:47:18.041Z,101123.34
2022-09-20T05:49:56.808Z,101136.00
2022-09-20T05:52:37.963Z,101122.94
2022-09-20T05:55:19.081Z,101134.31
2022-09-20T05:58:01.735Z,101136.13
2022-09-20T06:00:34.449Z,101141.59
2022-09-20T06:03:11.068Z,101144.50
2022-09-20T06:05:50.896Z,101152.31
2022-09-20T06:08:40.071Z,101145.25
2022-09-20T06:11:24.572Z,101154.16
2022-09-20T06:14:07.028Z,101148.69
2022-09-20T06:16:44.091Z,101144.25
2022-09-20T06:19:23.374Z,101146.84
2022-09-20T06:21:53.752Z,101160.28
2022-09-20T06:24:37.425Z,101153.91
2022-09-20T06:27:11.804Z,101163.81
2022-09-20T06:29:45.831Z,101152.78
2022-09-20T06:32:17.852Z,101164.66
2022-09-20T06:34:48.728Z,101191.47
2022-09-20T06:37:53.027Z,101190.44
2022-09-20T06:40:55.096Z,101200.16
2022-09-20T06:43:22.964Z,101206.53
2022-09-20T06:45:50.942Z,101204.59
2022-09-20T06:48:19.275Z,101199.09
2022-09-20T06:50:48.645Z,101203.38
2022-09-20T06:53:18.891Z,101214.84
2022-09-20T06:55:47.838Z,101223.75
2022-09-20T06:58:15.744Z,101221.94
2022-09-20T07:00:43.693Z,101221.81
2022-09-20T07:03:13.038Z,101223.41
2022-09-20T07:05:41.233Z,101243.97
2022-09-20T07:08:10.556Z,101234.84
2022-09-20T07:10:38.831Z,101230.47
2022-09-20T07:13:06.836Z,101234.84
2022-09-20T07:15:35.900Z,101243.75
2022-09-20T07:18:03.755Z,101233.88
2022-09-20T07:20:31.637Z,101249.88
2022-09-20T07:22:59.523Z,101239.03
2022-09-20T07:25:28.766Z,101249.66
2022-09-20T07:27:57.377Z,101253.06
2022-09-20T07:30:25.364Z,101245.03
2022-09-20T07:32:53.666Z,101251.78
2022-09-20T07:35:21.536Z,101257.06
2022-09-20T07:37:49.403Z,101268.53
2022-09-20T07:40:17.414Z,101255.97
2022-09-20T07:42:46.665Z,101260.25
2022-09-20T07:45:14.587Z,101258.41
2022-09-20T07:47:44.883Z,101265.63
2022-09-20T07:50:12.997Z,101270.66
2022-09-20T07:52:40.836Z,101259.91
2022-09-20T07:55:09.738Z,101259.78
2022-09-20T07:57:38.944Z,101260.53
2022-09-20T08:00:10.182Z,101263.00
2022-09-20T08:02:41.115Z,101266.53
2022-09-20T08:05:09.729Z,101267.41
2022-09-20T08:07:38.594Z,101276.19
2022-09-20T08:10:07.734Z,101271.47
2022-09-20T08:15:25.142Z,101274.78
2022-09-20T08:17:53.018Z,101277.38
2022-09-20T08:20:20.888Z,101267.59
2022-09-20T08:23:06.378Z,101275.34
2022-09-20T08:25:38.378Z,101286.69
2022-09-20T08:28:06.228Z,101286.59
2022-09-20T08:30:35.478Z,101282.81
2022-09-20T08:33:06.939Z,101266.72
2022-09-20T08:35:38.157Z,101286.13
2022-09-20T08:40:59.081Z,101311.16
2022-09-20T08:43:30.948Z,101299.47
2022-09-20T08:46:05.389Z,101298.69
2022-09-20T08:48:35.162Z,101303.22
2022-09-20T08:51:05.896Z,101324.72
2022-09-20T08:53:34.979Z,101310.28
2022-09-20T08:56:04.700Z,101324.59
2022-09-20T08:58:32.709Z,101327.41
2022-09-20T09:01:02.380Z,101323.72
2022-09-20T09:03:30.337Z,101317.47
2022-09-20T09:05:58.855Z,101315.66
2022-09-20T09:08:30.969Z,101326.41
2022-09-20T09:11:04.781Z,101326.31
2022-09-20T09:13:38.111Z,101336.19
2022-09-20T09:16:14.885Z,101326.31
2022-09-20T09:18:45.966Z,101335.09
2022-09-20T09:21:20.299Z,101317.81
2022-09-20T09:23:53.644Z,101351.22
2022-09-20T09:26:23.981Z,101347.91
2022-09-20T09:29:17.588Z,101337.16
2022-09-20T09:31:49.198Z,101334.94
2022-09-20T09:34:28.858Z,101338.69
2022-09-20T09:36:57.648Z,101363.28
2022-09-20T09:39:28.665Z,101355.94
2022-09-20T09:42:01.141Z,101359.63
2022-09-20T09:44:32.785Z,101339.00
2022-09-20T09:47:02.691Z,101365.81
2022-09-20T09:49:36.114Z,101383.81
2022-09-20T09:52:11.959Z,101369.38
2022-09-20T09:54:42.217Z,101367.69
2022-09-20T09:57:33.785Z,101357.78
2022-09-20T10:00:18.406Z,101364.13
2022-09-20T10:03:08.878Z,101374.00
2022-09-20T10:05:45.332Z,101369.59
2022-09-20T10:08:24.639Z,101372.94
2022-09-20T10:11:07.101Z,101370.38
2022-09-20T10:13:43.280Z,101382.72
2022-09-20T10:16:22.539Z,101376.47
2022-09-20T10:19:00.636Z,101372.06
2022-09-20T10:21:43.597Z,101398.19
2022-09-20T10:24:22.620Z,101380.34
2022-09-20T10:27:23.505Z,101391.09
2022-09-20T10:30:04.242Z,101380.34
2022-09-20T10:32:45.901Z,101378.66
2022-09-20T10:35:25.703Z,101387.22
2022-09-20T10:38:12.776Z,101407.84
2022-09-20T10:41:09.511Z,101400.66
2022-09-20T10:43:52.912Z,101414.94
2022-09-20T10:46:33.326Z,101418.38
2022-09-20T10:49:11.868Z,101406.66
2022-09-20T10:51:53.138Z,101409.25
2022-09-20T10:54:35.403Z,101428.03
2022-09-20T10:57:21.963Z,101420.09
2022-09-20T10:59:59.712Z,101437.84
2022-09-20T11:02:46.230Z,101428.78
2022-09-20T11:05:25.245Z,101426.09
2022-09-20T11:08:04.340Z,101430.50
2022-09-20T11:10:38.021Z,101442.22
2022-09-20T11:13:14.125Z,101437.50
2022-09-20T11:15:47.078Z,101442.88
2022-09-20T11:18:23.448Z,101442.00
2022-09-20T11:20:59.563Z,101454.47
2022-09-20T11:23:40.756Z,101446.28
2022-09-20T11:26:12.942Z,101431.59
2022-09-20T11:28:43.769Z,101454.22
2022-09-20T11:31:20.623Z,101466.72
2022-09-20T11:33:53.374Z,101451.88
2022-09-20T11:36:26.175Z,101459.50
2022-09-20T11:38:59.492Z,101463.09
2022-09-20T11:41:29.187Z,101475.72
2022-09-20T11:44:00.454Z,101478.41
2022-09-20T11:46:32.714Z,101481.91
2022-09-20T11:49:04.180Z,101483.78
2022-09-20T11:52:14.386Z,101487.34
2022-09-20T11:55:18.887Z,101479.41
2022-09-20T11:57:47.368Z,101499.16
2022-09-20T12:00:17.766Z,101490.16
2022-09-20T12:02:49.548Z,101488.31
2022-09-20T12:05:33.956Z,101499.16
2022-09-20T12:08:04.449Z,101505.53
2022-09-20T12:10:35.784Z,101504.53
2022-09-20T12:13:06.847Z,101510.03
2022-09-20T12:15:37.008Z,101518.31
2022-09-20T12:18:47.245Z,101516.34
2022-09-20T12:21:18.000Z,101506.47
2022-09-20T12:24:02.961Z,101511.63
2022-09-20T12:26:43.501Z,101517.00
2022-09-20T12:29:53.335Z,101526.78
2022-09-20T12:32:53.260Z,101529.59
2022-09-20T12:36:00.629Z,101541.19
2022-09-20T12:38:52.591Z,101535.81
2022-09-20T12:41:28.166Z,101532.28
2022-09-20T12:44:32.843Z,101540.22
2022-09-20T12:47:03.234Z,101537.63
2022-09-20T12:49:58.449Z,101532.06
2022-09-20T12:52:48.318Z,101533.13
2022-09-20T12:55:31.590Z,101541.06
2022-09-20T12:58:03.072Z,101534.22
2022-09-20T13:00:39.010Z,101541.75
2022-09-20T13:03:23.896Z,101547.78
2022-09-20T13:06:12.473Z,101534.84
2022-09-20T13:08:44.154Z,101555.72
2022-09-20T13:11:17.459Z,101563.66
2022-09-20T13:13:50.232Z,101549.63
2022-09-20T13:16:23.530Z,101561.63
2022-09-20T13:19:00.249Z,101565.06
2022-09-20T13:21:28.826Z,101580.31
2022-09-20T13:23:57.845Z,101567.13
2022-09-20T13:26:30.075Z,101577.56
2022-09-20T13:28:59.491Z,101576.59
2022-09-20T13:31:35.067Z,101575.59
2022-09-20T13:34:21.393Z,101574.66
2022-09-20T13:36:56.005Z,101603.34
2022-09-20T13:39:29.266Z,101598.72
2022-09-20T13:42:03.224Z,101596.03
2022-09-20T13:44:34.507Z,101602.41
2022-09-20T13:47:22.566Z,101594.41
2022-09-20T13:49:50.920Z,101605.28
2022-09-20T13:52:25.799Z,101598.09
2022-09-20T13:54:55.121Z,101609.88
2022-09-20T13:57:26.960Z,101600.13
2022-09-20T13:59:57.771Z,101601.19
2022-09-20T14:02:30.688Z,101618.06
2022-09-20T14:05:01.578Z,101611.81
2022-09-20T14:07:31.068Z,101630.75
2022-09-20T14:09:59.619Z,101626.34
2022-09-20T14:12:28.936Z,101630.84
2022-09-20T14:14:57.312Z,101650.53
2022-09-20T14:17:31.980Z,101609.44
2022-09-20T14:19:59.937Z,101640.75
2022-09-20T14:22:29.724Z,101641.59
2022-09-20T14:25:01.019Z,101638.06
2022-09-20T14:27:31.168Z,101645.28
2022-09-20T14:29:59.672Z,101647.84
2022-09-20T14:32:53.329Z,101657.50
2022-09-20T14:35:23.149Z,101649.78
2022-09-20T14:37:52.572Z,101659.34
2022-09-20T14:40:31.613Z,101662.81
2022-09-20T14:43:01.204Z,101664.72
2022-09-20T14:45:31.984Z,101666.44
2022-09-20T14:48:11.076Z,101664.72
2022-09-20T14:50:41.157Z,101663.88
2022-09-20T14:53:27.701Z,101671.94
2022-09-20T14:56:01.745Z,101676.31
2022-09-20T14:58:31.111Z,101674.63
2022-09-20T15:01:05.258Z,101681.81
2022-09-20T15:03:38.621Z,101678.16
2022-09-20T15:06:07.799Z,101681.81
2022-09-20T15:08:36.744Z,101683.63
2022-09-20T15:11:05.540Z,101689.00
2022-09-20T15:13:33.780Z,101669.41
2022-09-20T15:16:01.910Z,101684.84
2022-09-20T15:18:36.816Z,101683.97
2022-09-20T15:21:05.872Z,101678.78
2022-09-20T15:23:34.032Z,101684.28
2022-09-20T15:26:02.080Z,101698.72
2022-09-20T15:28:32.672Z,101698.72
2022-09-20T15:31:00.903Z,101696.16
2022-09-20T15:33:31.203Z,101697.09
2022-09-20T15:36:02.476Z,101692.06
2022-09-20T15:38:30.542Z,101700.88
2022-09-20T15:41:01.696Z,101697.34
2022-09-20T15:43:31.020Z,101696.47
2022-09-20T15:46:01.862Z,101696.47
2022-09-20T15:48:31.128Z,101707.97
2022-09-20T15:51:06.734Z,101715.84
2022-09-20T15:53:36.578Z,101723.03
2022-09-20T15:56:06.791Z,101710.47
2022-09-20T15:58:36.645Z,101715.16
2022-09-20T16:01:06.418Z,101723.97
2022-09-20T16:03:34.546Z,101726.78
2022-09-20T16:06:05.879Z,101722.28
2022-09-20T16:08:34.815Z,101725.03
2022-09-20T16:11:03.112Z,101730.53
2022-09-20T16:13:31.048Z,101733.22
2022-09-20T16:16:00.017Z,101728.91
2022-09-20T16:18:46.016Z,101745.91
2022-09-20T16:21:17.066Z,101702.53
2022-09-20T16:23:48.501Z,101719.75
2022-09-20T16:26:16.819Z,101736.41
2022-09-20T16:28:47.486Z,101731.91
2022-09-20T16:31:34.878Z,101743.59
2022-09-20T16:34:04.026Z,101741.13
2022-09-20T16:36:33.419Z,101740.25
2022-09-20T16:39:01.551Z,101738.56
2022-09-20T16:41:30.294Z,101743.16
2022-09-20T16:43:58.240Z,101741.75
2022-09-20T16:46:27.582Z,101746.25
2022-09-20T16:49:00.948Z,101742.91
2022-09-20T16:51:34.329Z,101744.81
2022-09-20T16:54:03.473Z,101753.09
2022-09-20T16:56:33.932Z,101747.91
2022-09-20T16:59:02.311Z,101748.13
2022-09-20T17:01:31.784Z,101749.16
2022-09-20T17:04:00.083Z,101753.03
2022-09-20T17:06:28.885Z,101758.38
2022-09-20T17:08:59.185Z,101761.19
2022-09-20T17:11:30.075Z,101768.38
2022-09-20T17:13:58.617Z,101757.06
2022-09-20T17:16:28.455Z,101759.66
2022-09-20T17:18:58.329Z,101759.00
2022-09-20T17:21:27.588Z,101735.03
2022-09-20T17:23:56.848Z,101762.81
2022-09-20T17:26:27.784Z,101766.47
2022-09-20T17:28:58.389Z,101774.63
2022-09-20T17:31:33.889Z,101759.47
2022-09-20T17:34:02.483Z,101754.59
2022-09-20T17:36:32.008Z,101773.75
2022-09-20T17:39:04.527Z,101768.38
2022-09-20T17:41:36.581Z,101777.41
2022-09-20T17:44:08.078Z,101773.09
2022-09-20T17:46:37.569Z,101777.59
2022-09-20T17:49:07.698Z,101784.78
2022-09-20T17:51:38.153Z,101783.94
2022-09-20T17:54:06.646Z,101779.72
2022-09-20T17:56:36.622Z,101785.09
2022-09-20T17:59:06.381Z,101793.19
2022-09-20T18:01:37.003Z,101795.00
2022-09-20T18:04:06.710Z,101801.34
2022-09-20T18:06:36.833Z,101797.78
2022-09-20T18:09:06.927Z,101780.19
2022-09-20T18:11:37.660Z,101797.91
2022-09-20T18:14:07.368Z,101795.41
2022-09-20T18:16:37.160Z,101792.16
2022-09-20T18:19:05.812Z,101782.56
2022-09-20T18:21:35.500Z,101799.53
2022-09-20T18:24:06.137Z,101799.72
2022-09-20T18:26:34.363Z,101805.19
2022-09-20T18:29:06.542Z,101816.84
2022-09-20T18:31:37.042Z,101809.00
2022-09-20T18:34:06.850Z,101813.72
2022-09-20T18:36:38.435Z,101817.34
2022-09-20T18:39:07.594Z,101807.19
2022-09-20T18:41:37.698Z,101812.25
2022-09-20T18:44:08.746Z,101811.75
2022-09-20T18:46:38.803Z,101830.34
2022-09-20T18:49:09.634Z,101825.09
2022-09-20T18:51:40.363Z,101830.47
2022-09-20T18:54:10.428Z,101826.16
2022-09-20T18:56:40.487Z,101834.09
2022-09-20T18:59:16.722Z,101824.75
2022-09-20T19:02:13.507Z,101847.59
2022-09-20T19:05:01.425Z,101828.59
2022-09-20T19:07:39.181Z,101845.00
2022-09-20T19:10:20.670Z,101854.88
2022-09-20T19:12:58.531Z,101853.16
2022-09-20T19:15:49.200Z,101856.69
2022-09-20T19:18:41.776Z,101850.53
2022-09-20T19:21:22.145Z,101854.97
2022-09-20T19:24:07.628Z,101854.00
2022-09-20T19:26:38.605Z,101854.19
2022-09-20T19:29:18.548Z,101856.00
2022-09-20T19:31:50.589Z,101861.25
2022-09-20T19:34:21.543Z,101860.31
2022-09-20T19:37:03.359Z,101862.13
2022-09-20T19:39:39.897Z,101866.72
2022-09-20T19:42:16.611Z,101864.22
2022-09-20T19:44:56.961Z,101861.56
2022-09-20T19:47:38.291Z,101866.16
2022-09-20T19:50:16.327Z,101858.28
2022-09-20T19:52:45.024Z,101871.78
2022-09-20T19:55:14.543Z,101871.88
2022-09-20T19:57:46.961Z,101856.34
2022-09-20T20:00:16.892Z,101868.41
2022-09-20T20:02:46.887Z,101873.88
2022-09-20T20:05:17.769Z,101872.03
2022-09-20T20:07:52.018Z,101877.63
2022-09-20T20:10:28.060Z,101874.06
2022-09-20T20:13:02.543Z,101870.50
2022-09-20T20:15:40.321Z,101874.25
2022-09-20T20:18:21.093Z,101877.03
2022-09-20T20:20:50.982Z,101879.00
2022-09-20T20:23:51.463Z,101877.97
2022-09-20T20:26:23.421Z,101878.13
2022-09-20T20:28:52.530Z,101889.56
2022-09-20T20:31:20.997Z,101885.84
2022-09-20T20:33:50.577Z,101890.22
2022-09-20T20:36:18.689Z,101887.47
2022-09-20T20:38:49.958Z,101882.09
2022-09-20T20:41:20.446Z,101864.25
2022-09-20T20:43:52.882Z,101892.66
2022-09-20T20:46:20.853Z,101886.41
2022-09-20T20:48:50.337Z,101897.91
2022-09-20T20:51:19.848Z,101899.66
2022-09-20T20:53:50.063Z,101903.09
2022-09-20T20:56:19.939Z,101902.22
2022-09-20T20:58:49.005Z,101904.91
2022-09-20T21:01:18.825Z,101906.66
2022-09-20T21:03:48.500Z,101910.19
2022-09-20T21:06:18.063Z,101918.16
2022-09-20T21:08:49.588Z,101915.56
2022-09-20T21:11:21.917Z,101918.31
2022-09-20T21:13:50.347Z,101915.75
2022-09-20T21:16:20.744Z,101920.22
2022-09-20T21:18:49.749Z,101923.09
2022-09-20T21:21:21.103Z,101935.63
2022-09-20T21:23:50.789Z,101940.22
2022-09-20T21:26:19.781Z,101945.69
2022-09-20T21:28:52.124Z,101946.63
2022-09-20T21:31:21.611Z,101941.38
2022-09-20T21:33:49.718Z,101946.78
2022-09-20T21:36:20.893Z,101946.78
2022-09-20T21:38:49.057Z,101934.72
2022-09-20T21:41:18.797Z,101940.56
2022-09-20T21:43:48.900Z,101948.72
2022-09-20T21:46:18.950Z,101947.84
2022-09-20T21:48:48.457Z,101916.69
2022-09-20T21:51:20.402Z,101948.59
2022-09-20T21:53:49.443Z,101948.72
2022-09-20T21:56:18.529Z,101956.75
2022-09-20T21:58:46.988Z,101959.44
2022-09-20T22:01:17.465Z,101955.81
2022-09-20T22:03:46.832Z,101962.00
2022-09-20T22:06:17.325Z,101962.88
2022-09-20T22:08:49.826Z,101962.88
2022-09-20T22:11:18.764Z,101966.53
2022-09-20T22:13:48.485Z,101961.16
2022-09-20T22:16:17.998Z,101960.19
2022-09-20T22:18:46.884Z,101958.50
2022-09-20T22:21:16.856Z,101970.84
2022-09-20T22:23:45.124Z,101969.97
2022-09-20T22:26:16.286Z,101968.19
2022-09-20T22:28:44.759Z,101934.34
2022-09-20T22:31:14.389Z,101962.72
2022-09-20T22:33:43.912Z,101968.94
2022-09-20T22:36:14.132Z,101958.50
2022-09-20T22:38:42.398Z,101976.00
2022-09-20T22:41:11.499Z,101974.19
2022-09-20T22:43:41.817Z,101977.84
2022-09-20T22:46:11.563Z,101974.38
2022-09-20T22:48:40.059Z,101972.66
2022-09-20T22:51:10.187Z,101973.59
2022-09-20T22:53:38.670Z,101971.03
2022-09-20T22:56:08.464Z,101939.94
2022-09-20T22:58:37.891Z,101972.94
2022-09-20T23:01:12.348Z,101972.06
2022-09-20T23:03:41.635Z,101972.25
2022-09-20T23:06:14.612Z,101975.78
2022-09-20T23:08:42.871Z,101975.91
2022-09-20T23:11:10.802Z,101977.84
2022-09-20T23:13:39.283Z,101978.78
2022-09-20T23:16:18.148Z,101979.66
2022-09-20T23:18:46.439Z,101978.06
2022-09-20T23:21:14.821Z,101978.06
2022-09-20T23:23:43.254Z,101968.38
2022-09-20T23:26:13.082Z,101978.28
2022-09-20T23:28:42.547Z,101977.47
2022-09-20T23:31:12.715Z,101980.09
2022-09-20T23:33:48.336Z,101973.75
2022-09-20T23:36:17.592Z,101977.31
2022-09-20T23:38:45.888Z,101970.22
2022-09-20T23:41:15.852Z,101975.50
2022-09-20T23:43:44.207Z,101969.44
2022-09-20T23:46:13.808Z,101980.94
2022-09-20T23:48:43.479Z,101978.44
2022-09-20T23:51:14.132Z,101973.91
2022-09-20T23:53:42.815Z,101993.53
2022-09-20T23:56:11.846Z,101991.75
2022-09-20T23:58:40.952Z,101994.53
